Time;durP1;ratioP1;P1;durP2;ratioP2;P2;SDS_P1;SDS_P2;PMS_P1;PMS_P2;Temp;Humidity;BMP_temperature;BMP_pressure;BME280_temperature;BME280_humidity;BME280_pressure;Samples;Min_cycle;Max_cycle;Signal;HPM_P1;HPM_P2
2023/04/04 04:13:10;;;;;;;6.18;3.12;;;;;;;-0.70;66.96;100456.72;5558576;32;273781;-85
2023/04/04 04:16:14;;;;;;;5.43;3.37;;;;;;;-0.76;68.14;100451.53;5547867;32;33961;-85
2023/04/04 04:19:17;;;;;;;6.05;3.20;;;;;;;-0.78;67.93;100455.88;5547991;32;34644;-85
2023/04/04 04:22:21;;;;;;;8.27;3.50;;;;;;;-0.81;69.08;100448.06;5553571;32;34056;-85
2023/04/04 04:25:24;;;;;;;6.07;3.20;;;;;;;-0.71;68.09;100447.19;5548206;32;33907;-85
2023/04/04 04:28:29;;;;;;;5.35;3.22;;;;;;;-0.74;68.79;100447.22;5559871;32;33899;-86
2023/04/04 04:31:38;;;;;;;4.87;3.55;;;;;;;-0.68;69.58;100455.00;5564463;32;34843;-85
2023/04/04 04:34:42;;;;;;;6.20;3.45;;;;;;;-0.67;68.21;100453.25;5564161;32;33900;-85
2023/04/04 04:37:46;;;;;;;4.70;3.70;;;;;;;-0.68;68.45;100451.53;5586947;32;33646;-85
2023/04/04 04:40:49;;;;;;;6.40;4.22;;;;;;;-0.61;68.31;100450.63;5586577;31;33740;-85
2023/04/04 04:43:52;;;;;;;7.75;4.40;;;;;;;-0.62;69.10;100451.50;5586683;31;33716;-85
2023/04/04 04:46:58;;;;;;;5.90;3.92;;;;;;;-0.63;69.17;100452.38;5586401;31;34385;-85
2023/04/04 04:50:01;;;;;;;7.30;4.03;;;;;;;-0.63;69.09;100452.38;5586448;32;34087;-85
2023/04/04 04:53:07;;;;;;;6.03;3.95;;;;;;;-0.58;68.58;100452.38;5586024;31;34041;-88
2023/04/04 04:56:10;;;;;;;6.55;4.10;;;;;;;-0.52;68.88;100454.09;5585234;32;33758;-89
2023/04/04 04:59:14;;;;;;;6.87;4.72;;;;;;;-0.30;68.06;100453.16;5587541;31;33847;-90
2023/04/04 05:02:17;;;;;;;5.47;3.95;;;;;;;-0.45;67.79;100463.66;5579132;31;33932;-87
2023/04/04 05:05:21;;;;;;;8.32;4.53;;;;;;;-0.26;67.03;100453.16;5566559;32;33755;-85
2023/04/04 05:08:25;;;;;;;10.68;5.00;;;;;;;-0.33;67.41;100454.91;5580074;32;34255;-86
2023/04/04 05:11:28;;;;;;;9.00;4.28;;;;;;;-0.31;67.24;100455.75;5580490;32;34026;-86
2023/04/04 05:14:31;;;;;;;6.72;4.87;;;;;;;-0.19;66.67;100454.84;5583849;32;33969;-86
2023/04/04 05:17:38;;;;;;;7.82;4.82;;;;;;;-0.19;67.91;100441.81;5573207;31;33972;-86
2023/04/04 05:20:42;;;;;;;6.55;5.03;;;;;;;-0.11;67.84;100441.78;5566823;32;33750;-85
2023/04/04 05:23:47;;;;;;;7.47;5.30;;;;;;;-0.06;67.29;100442.62;5548732;32;33932;-86
2023/04/04 05:26:50;;;;;;;8.80;5.30;;;;;;;-0.01;67.63;100446.06;5549593;32;35048;-85
2023/04/04 05:29:55;;;;;;;10.35;5.28;;;;;;;-0.05;67.70;100452.19;5551249;32;33949;-85
2023/04/04 05:32:59;;;;;;;9.18;5.15;;;;;;;-0.11;67.67;100457.44;5551488;32;34449;-85
2023/04/04 05:36:02;;;;;;;10.38;5.30;;;;;;;0.03;67.34;100454.75;5554276;32;34389;-86
2023/04/04 05:39:05;;;;;;;8.02;4.78;;;;;;;0.30;66.13;100458.09;5549009;32;34014;-86
2023/04/04 05:42:09;;;;;;;7.82;5.20;;;;;;;0.73;65.34;100472.59;5561730;32;34081;-85
2023/04/04 05:45:13;;;;;;;12.57;5.93;;;;;;;0.76;64.52;100460.37;5562334;32;33930;-85
2023/04/04 05:48:17;;;;;;;10.40;6.55;;;;;;;0.94;64.71;100458.50;5561069;32;33455;-84
2023/04/04 05:51:22;;;;;;;11.65;6.55;;;;;;;0.84;63.26;100459.47;5553274;32;34197;-85
2023/04/04 05:54:25;;;;;;;11.35;5.90;;;;;;;1.49;63.24;100466.69;5538377;32;35144;-84
2023/04/04 05:57:29;;;;;;;9.70;5.82;;;;;;;2.08;60.10;100467.75;5554120;32;33830;-85
2023/04/04 06:00:32;;;;;;;13.43;5.70;;;;;;;2.49;58.34;100476.78;5553175;32;33854;-83
2023/04/04 06:03:36;;;;;;;6.80;4.85;;;;;;;2.84;56.53;100482.38;5548675;32;34625;-83
2023/04/04 06:06:40;;;;;;;7.80;5.00;;;;;;;4.06;52.69;100481.03;5560564;32;33841;-83
2023/04/04 06:09:43;;;;;;;11.10;5.60;;;;;;;4.82;50.57;100470.56;5563267;32;33883;-85
2023/04/04 06:12:46;;;;;;;10.82;4.90;;;;;;;5.10;49.94;100472.53;5550938;32;32771;-83
2023/04/04 06:15:49;;;;;;;8.55;3.90;;;;;;;5.52;47.85;100471.44;5549828;32;32509;-83
2023/04/04 06:18:55;;;;;;;11.70;4.22;;;;;;;5.88;43.50;100470.47;5566544;32;33803;-83
2023/04/04 06:21:58;;;;;;;6.12;3.62;;;;;;;6.53;42.57;100486.16;5557350;32;34945;-83
2023/04/04 06:25:01;;;;;;;5.10;3.60;;;;;;;6.47;42.17;100474.91;5553243;32;33876;-83
2023/04/04 06:28:04;;;;;;;4.93;3.50;;;;;;;6.76;41.17;100474.87;5552896;32;35451;-83
2023/04/04 06:31:07;;;;;;;5.72;3.50;;;;;;;7.15;39.69;100485.03;5550419;32;34233;-84
2023/04/04 06:34:10;;;;;;;6.28;3.50;;;;;;;7.07;39.23;100487.06;5553144;32;34830;-84
2023/04/04 06:37:15;;;;;;;7.12;3.50;;;;;;;8.09;36.95;100468.50;5546702;32;34052;-84
2023/04/04 06:40:20;;;;;;;4.50;3.30;;;;;;;8.26;36.19;100444.09;5560750;32;34008;-84
2023/04/04 06:43:23;;;;;;;5.62;3.33;;;;;;;7.93;36.47;100434.78;5544977;32;34230;-84
2023/04/04 06:46:26;;;;;;;4.55;3.37;;;;;;;7.89;37.73;100438.44;5556482;32;33903;-84
2023/04/04 06:49:29;;;;;;;3.50;3.00;;;;;;;7.65;36.65;100448.97;5552128;32;35904;-85
2023/04/04 06:52:33;;;;;;;4.72;3.10;;;;;;;6.07;39.21;100444.47;5552489;32;34938;-87
2023/04/04 06:55:37;;;;;;;3.97;3.20;;;;;;;6.33;39.05;100434.91;5543794;32;34027;-85
2023/04/04 06:58:40;;;;;;;7.97;3.28;;;;;;;5.86;39.92;100431.03;5541327;32;33852;-88
2023/04/04 07:01:44;;;;;;;5.22;3.70;;;;;;;5.53;40.52;100428.44;5552475;32;35141;-88
2023/04/04 07:04:47;;;;;;;7.30;3.33;;;;;;;5.94;40.05;100436.91;5554314;32;33891;-89
2023/04/04 07:07:53;;;;;;;5.07;3.65;;;;;;;5.25;41.83;100427.41;5547083;32;33748;-89
2023/04/04 07:10:57;;;;;;;4.45;3.30;;;;;;;5.60;41.25;100445.81;5542030;32;33783;-85
2023/04/04 07:14:00;;;;;;;5.10;3.58;;;;;;;5.15;42.56;100447.00;5529909;32;34319;-86
2023/04/04 07:17:03;;;;;;;5.45;3.55;;;;;;;5.36;41.57;100449.94;5529495;32;34417;-84
2023/04/04 07:20:18;;;;;;;4.90;3.42;;;;;;;4.60;43.05;100442.19;5515208;32;34988;-85
2023/04/04 07:23:21;;;;;;;4.18;3.17;;;;;;;4.81;43.15;100445.19;5517000;32;33866;-85
2023/04/04 07:26:24;;;;;;;6.05;3.70;;;;;;;4.34;43.48;100453.31;5530794;32;35156;-85
2023/04/04 07:29:27;;;;;;;5.00;3.25;;;;;;;4.13;43.69;100456.38;5539128;32;35150;-84
2023/04/04 07:32:30;;;;;;;4.40;3.53;;;;;;;4.25;44.06;100457.87;5519753;32;34249;-84
2023/04/04 07:35:34;;;;;;;5.87;3.87;;;;;;;4.25;43.98;100444.75;5521796;32;34766;-84
2023/04/04 07:38:36;;;;;;;5.60;4.03;;;;;;;4.21;45.13;100450.97;5542796;32;33865;-84
2023/04/04 07:41:40;;;;;;;4.47;3.28;;;;;;;4.19;43.58;100463.28;5532353;32;35464;-87
2023/04/04 07:44:43;;;;;;;5.15;3.30;;;;;;;4.53;43.58;100448.50;5531014;32;34118;-85
2023/04/04 07:47:46;;;;;;;4.60;3.45;;;;;;;5.54;41.75;100456.50;5521219;32;34215;-86
2023/04/04 07:50:48;;;;;;;4.12;3.28;;;;;;;6.88;38.87;100450.75;5528497;32;34056;-84
2023/04/04 07:53:51;;;;;;;5.47;3.80;;;;;;;8.72;36.38;100459.94;5520813;32;35110;-85
2023/04/04 07:56:54;;;;;;;5.50;3.22;;;;;;;10.52;33.46;100467.09;5517762;32;34620;-86
2023/04/04 07:59:57;;;;;;;4.62;3.30;;;;;;;10.78;32.88;100459.66;5524632;32;34122;-85
2023/04/04 08:03:01;;;;;;;7.15;3.60;;;;;;;9.20;33.40;100453.59;5573223;26;34406;-89
2023/04/04 08:06:04;;;;;;;4.28;3.72;;;;;;;10.65;32.67;100459.41;5518568;32;34154;-87
2023/04/04 08:09:07;;;;;;;6.50;3.55;;;;;;;10.30;32.62;100469.03;5524303;32;34347;-87
2023/04/04 08:12:10;;;;;;;4.35;3.25;;;;;;;7.75;36.04;100459.22;5626425;26;34093;-87
2023/04/04 08:15:13;;;;;;;3.65;3.30;;;;;;;7.87;36.58;100455.25;5609461;26;33752;-88
2023/04/04 08:18:17;;;;;;;4.18;3.17;;;;;;;7.51;36.71;100448.62;5551045;32;33802;-86
2023/04/04 08:21:19;;;;;;;5.12;3.22;;;;;;;7.26;36.91;100446.84;5558146;32;34314;-86
2023/04/04 08:24:23;;;;;;;3.87;2.75;;;;;;;7.01;37.18;100455.62;5561826;32;34023;-86
2023/04/04 08:27:27;;;;;;;4.37;2.72;;;;;;;6.98;36.51;100459.22;5547091;32;34643;-87
2023/04/04 08:30:34;;;;;;;4.62;2.78;;;;;;;7.38;36.21;100464.91;5558733;32;33393;-87
2023/04/04 08:33:37;;;;;;;4.65;2.97;;;;;;;7.16;36.49;100467.44;5557166;32;33855;-87
2023/04/04 08:36:49;;;;;;;3.92;3.28;;;;;;;7.25;37.26;100461.81;5548932;32;35465;-86
2023/04/04 08:39:52;;;;;;;4.60;3.03;;;;;;;7.26;36.16;100454.78;5550072;32;33649;-86
2023/04/04 08:42:56;;;;;;;4.35;3.40;;;;;;;6.85;36.67;100455.25;5548387;32;34533;-86
2023/04/04 08:46:03;;;;;;;3.45;2.75;;;;;;;6.70;37.70;100462.75;5562148;32;34580;-86
2023/04/04 08:49:06;;;;;;;4.53;2.87;;;;;;;7.68;36.05;100453.28;5559345;32;33822;-87
2023/04/04 08:52:11;;;;;;;3.70;2.95;;;;;;;7.77;36.18;100441.53;5544028;32;34554;-86
2023/04/04 08:55:14;;;;;;;3.20;2.85;;;;;;;7.53;35.17;100446.78;5536350;32;34240;-87
2023/04/04 08:58:17;;;;;;;4.37;3.40;;;;;;;7.36;36.24;100450.03;5545542;32;33949;-90
2023/04/04 09:01:21;;;;;;;4.75;3.00;;;;;;;7.81;35.54;100444.00;5533875;32;33927;-91
2023/04/04 09:04:25;;;;;;;4.85;3.45;;;;;;;6.76;36.79;100439.72;5553924;32;34099;-90
2023/04/04 09:07:29;;;;;;;3.95;3.03;;;;;;;6.66;37.63;100437.41;5549347;32;35391;-86
2023/04/04 09:10:32;;;;;;;4.28;3.03;;;;;;;7.23;36.49;100426.72;5543905;32;34366;-87
2023/04/04 09:13:35;;;;;;;5.53;3.58;;;;;;;7.30;36.61;100445.84;5543228;31;33843;-86
2023/04/04 09:16:53;;;;;;;5.20;3.20;;;;;;;7.65;36.80;100424.38;5572198;26;33819;-86
2023/04/04 09:20:01;;;;;;;4.20;3.60;;;;;;;7.72;35.54;100430.28;5507092;32;33317;-87
2023/04/04 09:23:06;;;;;;;6.25;3.10;;;;;;;7.12;36.56;100426.22;5559699;26;35104;-86
2023/04/04 09:26:12;;;;;;;3.60;2.80;;;;;;;7.27;36.83;100430.97;5522858;32;33557;-86
2023/04/04 09:29:18;;;;;;;3.83;3.25;;;;;;;7.73;36.71;100432.00;5512491;32;33682;-86
2023/04/04 09:32:23;;;;;;;6.43;3.22;;;;;;;8.59;35.00;100425.19;5513763;32;34466;-86
2023/04/04 09:35:26;;;;;;;4.78;3.35;;;;;;;7.53;35.59;100428.31;5517341;32;34063;-86
2023/04/04 09:38:31;;;;;;;4.28;2.75;;;;;;;7.88;36.46;100438.50;5515092;32;34325;-86
2023/04/04 09:41:38;;;;;;;3.92;3.12;;;;;;;7.58;36.20;100418.44;5518860;32;34553;-86
2023/04/04 09:44:41;;;;;;;3.80;2.87;;;;;;;7.72;36.32;100415.31;5517641;32;35961;-86
2023/04/04 09:47:44;;;;;;;3.85;3.03;;;;;;;7.66;37.19;100418.19;5521999;32;34035;-86
2023/04/04 09:50:47;;;;;;;3.42;2.78;;;;;;;8.10;36.17;100414.78;5513358;32;33966;-86
2023/04/04 09:53:50;;;;;;;3.85;3.15;;;;;;;8.62;36.46;100417.13;5521017;32;33573;-85
2023/04/04 09:56:54;;;;;;;4.07;2.87;;;;;;;8.70;34.27;100403.59;5517942;32;33338;-85
2023/04/04 10:00:07;;;;;;;4.70;3.20;;;;;;;9.55;33.51;100400.88;5527190;32;34854;-87
2023/04/04 10:03:12;;;;;;;5.97;2.92;;;;;;;10.34;34.50;100405.19;5517597;32;33932;-86
2023/04/04 10:06:15;;;;;;;3.12;2.53;;;;;;;10.87;32.83;100410.59;5516860;32;33821;-87
2023/04/04 10:09:18;;;;;;;3.97;2.70;;;;;;;10.10;31.65;100408.06;5519050;32;33804;-88
2023/04/04 10:12:24;;;;;;;5.25;3.20;;;;;;;8.80;33.14;100419.09;5527314;32;34640;-87
2023/04/04 10:15:35;;;;;;;3.15;2.78;;;;;;;8.67;32.83;100409.03;5522784;32;34041;-87
2023/04/04 10:18:39;;;;;;;4.75;2.87;;;;;;;8.29;33.49;100404.31;5522662;32;33995;-87
2023/04/04 10:21:42;;;;;;;4.12;2.50;;;;;;;8.39;33.34;100404.81;5525232;32;34498;-87
2023/04/04 10:24:45;;;;;;;2.58;2.33;;;;;;;8.93;32.76;100407.06;5544875;32;34926;-87
2023/04/04 10:27:48;;;;;;;5.28;2.72;;;;;;;9.37;32.41;100397.28;5535301;32;34861;-86
2023/04/04 10:31:21;;;;;;;3.10;2.62;;;;;;;9.68;31.67;100391.47;5538839;32;35231;-87
2023/04/04 10:34:30;;;;;;;4.03;3.05;;;;;;;8.75;32.83;100384.91;5540229;32;34794;-87
2023/04/04 10:37:46;;;;;;;3.70;2.70;;;;;;;9.35;32.41;100385.91;5517725;32;33976;-87
2023/04/04 10:40:58;;;;;;;12.23;3.40;;;;;;;9.17;32.28;100376.03;5587166;26;34581;-88
2023/04/04 10:44:11;;;;;;;4.43;3.35;;;;;;;7.74;35.32;100376.50;5563938;32;33598;-87
2023/04/04 10:47:20;;;;;;;4.95;3.42;;;;;;;8.48;34.23;100374.50;5563855;32;34202;-87
2023/04/04 10:50:24;;;;;;;3.17;2.80;;;;;;;8.46;33.59;100374.56;5593503;26;34007;-87
2023/04/04 10:53:31;;;;;;;3.60;2.80;;;;;;;8.71;34.33;100378.03;5543053;32;33674;-87
2023/04/04 10:56:35;;;;;;;3.33;2.60;;;;;;;9.01;32.10;100383.78;5540281;32;34670;-87
2023/04/04 11:22:22;;;;;;;3.72;3.10;;;;;;;9.69;31.11;100360.50;845232;30;20398;-88
2023/04/04 11:25:36;;;;;;;6.45;3.25;;;;;;;9.62;31.73;100359.97;5601569;26;32833;-88
2023/04/04 11:28:39;;;;;;;4.97;3.17;;;;;;;10.75;29.69;100355.47;5542091;32;33532;-87
2023/04/04 11:31:44;;;;;;;3.60;2.90;;;;;;;10.51;30.10;100351.34;5550895;32;34205;-88
2023/04/04 11:34:49;;;;;;;5.57;3.25;;;;;;;10.02;30.97;100351.06;5551248;32;34242;-88
2023/04/04 11:37:52;;;;;;;2.80;2.60;;;;;;;9.46;32.00;100350.97;5543553;32;34778;-87
2023/04/04 11:40:56;;;;;;;5.05;2.80;;;;;;;9.55;31.90;100348.78;5552142;26;33821;-88
2023/04/04 11:44:08;;;;;;;6.40;2.97;;;;;;;9.50;31.84;100348.13;5523231;32;33959;-88
2023/04/04 11:47:12;;;;;;;3.67;2.92;;;;;;;9.77;31.46;100344.28;5564326;26;34263;-86
2023/04/04 11:50:15;;;;;;;4.32;3.22;;;;;;;10.01;30.98;100339.59;5549253;32;34734;-87
2023/04/04 11:53:19;;;;;;;3.10;2.80;;;;;;;10.14;31.26;100325.75;5558827;32;35249;-87
2023/04/04 11:56:23;;;;;;;3.28;2.97;;;;;;;9.80;31.29;100328.22;5557342;32;35309;-87
2023/04/04 11:59:26;;;;;;;3.75;3.00;;;;;;;9.56;31.45;100318.72;5547239;32;35684;-86
2023/04/04 12:02:33;;;;;;;3.72;3.35;;;;;;;9.55;31.67;100327.59;5547868;32;32448;-86
2023/04/04 12:05:42;;;;;;;5.40;3.15;;;;;;;9.14;31.95;100323.25;5543890;32;34943;-87
2023/04/04 12:08:45;;;;;;;5.80;2.80;;;;;;;9.42;32.81;100315.84;5541878;32;34058;-86
2023/04/04 12:11:49;;;;;;;4.55;3.20;;;;;;;9.16;32.73;100315.25;5550587;32;34137;-86
2023/04/04 12:14:53;;;;;;;4.40;3.53;;;;;;;9.54;32.38;100314.41;5555503;32;34267;-86
2023/04/04 12:18:08;;;;;;;5.70;3.35;;;;;;;9.81;32.39;100304.31;5549146;32;34382;-87
2023/04/04 12:21:11;;;;;;;5.22;3.10;;;;;;;9.63;32.37;100305.19;5547289;32;35205;-87
2023/04/04 12:24:15;;;;;;;4.40;2.80;;;;;;;9.56;31.38;100302.81;5536003;32;34135;-86
2023/04/04 12:27:18;;;;;;;5.78;3.35;;;;;;;9.71;32.02;100305.69;5531874;32;34833;-86
2023/04/04 12:30:21;;;;;;;5.18;3.03;;;;;;;9.36;31.88;100289.66;5530726;32;34558;-87
2023/04/04 12:33:24;;;;;;;5.72;2.83;;;;;;;9.43;32.62;100291.09;5535018;32;34603;-86
2023/04/04 12:36:31;;;;;;;5.03;3.33;;;;;;;9.95;31.49;100284.22;5537518;32;33577;-90
2023/04/04 12:39:39;;;;;;;3.85;2.80;;;;;;;9.23;32.47;100294.63;5552363;32;34090;-90
2023/04/04 12:42:55;;;;;;;3.33;3.03;;;;;;;9.11;32.44;100285.47;5570964;26;33508;-87
2023/04/04 12:45:57;;;;;;;3.37;2.90;;;;;;;9.06;32.65;100282.19;5541849;32;33658;-86
2023/04/04 12:49:03;;;;;;;3.12;2.83;;;;;;;9.21;32.41;100283.28;5543482;32;34176;-86
2023/04/04 12:52:07;;;;;;;3.08;2.70;;;;;;;8.94;32.47;100275.66;5537075;32;34041;-87
2023/04/04 12:55:11;;;;;;;3.58;2.65;;;;;;;9.51;31.86;100273.03;5535503;32;34843;-87
2023/04/04 13:01:52;;;;;;;3.97;3.12;;;;;;;9.51;31.50;100275.69;5530265;30;20069;-87
2023/04/04 13:04:57;;;;;;;3.60;2.92;;;;;;;9.75;31.64;100267.50;5560625;32;35145;-87
2023/04/04 13:08:07;;;;;;;3.83;2.85;;;;;;;9.64;31.67;100264.50;5594179;26;34325;-87
2023/04/04 13:11:10;;;;;;;4.22;2.97;;;;;;;9.52;32.18;100266.84;5552731;32;34680;-87
2023/04/04 13:14:13;;;;;;;6.25;3.25;;;;;;;9.15;32.62;100273.81;5550187;32;33992;-87
2023/04/04 13:17:16;;;;;;;3.42;2.95;;;;;;;9.11;32.47;100259.84;5548371;32;33964;-87
2023/04/04 13:20:20;;;;;;;4.50;3.10;;;;;;;8.88;33.25;100260.91;5585731;26;33933;-87
2023/04/04 13:23:24;;;;;;;3.97;2.90;;;;;;;8.77;33.00;100261.37;5515390;32;34111;-87
2023/04/04 13:26:27;;;;;;;4.03;3.20;;;;;;;8.64;32.99;100255.75;5499893;32;35275;-86
2023/04/04 13:29:31;;;;;;;3.65;2.80;;;;;;;8.96;32.78;100258.75;5493969;32;33890;-86
2023/04/04 13:32:33;;;;;;;4.80;3.03;;;;;;;9.12;32.59;100261.59;5499475;32;35199;-87
2023/04/04 13:35:37;;;;;;;5.03;3.20;;;;;;;9.11;31.86;100246.63;5495388;32;34076;-86
2023/04/04 13:38:40;;;;;;;4.97;3.10;;;;;;;8.80;30.81;100252.47;5493673;32;33814;-86
2023/04/04 13:41:43;;;;;;;3.55;2.78;;;;;;;8.87;31.70;100249.47;5496706;32;33664;-87
2023/04/04 13:44:46;;;;;;;3.60;2.90;;;;;;;8.88;32.26;100239.75;5496058;32;34317;-89
2023/04/04 13:47:49;;;;;;;4.95;2.55;;;;;;;8.44;32.91;100238.97;5498082;32;33939;-87
2023/04/04 13:50:54;;;;;;;3.80;2.80;;;;;;;8.70;33.10;100247.56;5512100;32;34811;-88
2023/04/04 13:53:57;;;;;;;3.97;2.80;;;;;;;9.16;32.31;100242.00;5511188;32;34406;-88
2023/04/04 13:56:59;;;;;;;3.10;2.53;;;;;;;9.09;31.98;100239.69;5512123;32;33895;-88
2023/04/04 14:00:04;;;;;;;3.47;2.87;;;;;;;9.47;31.89;100241.50;5511792;32;33666;-87
2023/04/04 14:03:11;;;;;;;7.28;2.85;;;;;;;9.12;31.03;100242.22;5511278;32;34025;-91
2023/04/04 14:06:14;;;;;;;5.03;2.90;;;;;;;8.74;31.97;100254.44;5505142;32;34379;-91
2023/04/04 14:09:17;;;;;;;3.50;2.72;;;;;;;8.80;32.37;100247.16;5491749;32;34758;-91
2023/04/04 14:12:20;;;;;;;2.90;2.62;;;;;;;8.83;32.24;100245.25;5495519;32;34216;-87
2023/04/04 14:15:23;;;;;;;3.83;2.90;;;;;;;9.15;31.99;100244.69;5492310;32;34633;-87
2023/04/04 14:18:26;;;;;;;3.35;2.97;;;;;;;9.21;31.63;100243.56;5502103;32;33924;-86
2023/04/04 14:21:28;;;;;;;3.33;2.90;;;;;;;9.25;31.73;100247.81;5510742;32;33973;-87
2023/04/04 14:24:31;;;;;;;3.35;2.90;;;;;;;8.97;31.28;100251.69;5493134;32;33563;-86
2023/04/04 14:27:34;;;;;;;3.97;3.03;;;;;;;9.04;31.70;100258.44;5491603;32;34476;-87
2023/04/04 14:30:37;;;;;;;3.30;3.00;;;;;;;8.96;32.04;100255.28;5492487;32;34611;-86
2023/04/04 14:33:39;;;;;;;4.90;3.20;;;;;;;9.15;32.13;100242.94;5495254;32;34852;-86
2023/04/04 14:36:42;;;;;;;4.05;2.87;;;;;;;9.15;31.80;100250.87;5492852;32;34259;-87
2023/04/04 14:39:45;;;;;;;2.65;2.45;;;;;;;9.11;31.80;100256.38;5495703;32;34140;-86
2023/04/04 14:42:48;;;;;;;4.53;3.00;;;;;;;9.11;31.59;100254.56;5495855;32;34232;-86
2023/04/04 14:45:51;;;;;;;3.28;2.97;;;;;;;9.51;31.23;100261.59;5494008;32;35383;-86
2023/04/04 14:48:54;;;;;;;4.15;3.17;;;;;;;9.27;32.02;100249.41;5494314;32;33800;-87
2023/04/04 14:51:57;;;;;;;4.55;3.35;;;;;;;9.13;32.20;100257.16;5500975;32;34099;-85
2023/04/04 14:54:59;;;;;;;4.20;3.25;;;;;;;8.85;32.92;100253.97;5500449;32;34060;-86
2023/04/04 14:58:02;;;;;;;4.20;2.97;;;;;;;8.66;33.58;100251.28;5513282;32;33844;-87
2023/04/04 15:01:05;;;;;;;3.72;3.03;;;;;;;8.63;33.62;100257.56;5514773;32;34212;-87
2023/04/04 15:04:10;;;;;;;4.35;3.28;;;;;;;8.59;33.06;100255.97;5513176;32;33768;-87
2023/04/04 15:07:13;;;;;;;4.35;3.40;;;;;;;8.42;33.74;100255.81;5511370;32;34277;-87
2023/04/04 15:10:16;;;;;;;3.42;3.10;;;;;;;8.30;34.06;100257.19;5511400;32;33892;-87
2023/04/04 15:13:19;;;;;;;3.55;3.22;;;;;;;8.19;34.34;100260.28;5512235;32;33572;-87
2023/04/04 15:16:23;;;;;;;5.03;3.30;;;;;;;8.22;34.11;100250.47;5510953;32;33637;-86
2023/04/04 15:19:27;;;;;;;3.55;3.05;;;;;;;8.28;34.26;100259.91;5512692;32;33642;-86
